sensor_id;sensor_type;location;lat;lon;timestamp;P1;durP1;ratioP1;P2;durP2;ratioP2
21337;SDS011;10827;50.878;4.382;2022-07-05T00:01:07;7.33;;;4.10;;
21337;SDS011;10827;50.878;4.382;2022-07-05T00:03:33;9.90;;;4.40;;
21337;SDS011;10827;50.878;4.382;2022-07-05T00:05:59;6.10;;;4.20;;
21337;SDS011;10827;50.878;4.382;2022-07-05T00:08:25;8.03;;;4.10;;
21337;SDS011;10827;50.878;4.382;2022-07-05T00:10:51;5.63;;;3.90;;
21337;SDS011;10827;50.878;4.382;2022-07-05T00:13:17;9.03;;;3.83;;
21337;SDS011;10827;50.878;4.382;2022-07-05T00:15:43;7.03;;;4.23;;
21337;SDS011;10827;50.878;4.382;2022-07-05T00:18:09;11.20;;;4.17;;
21337;SDS011;10827;50.878;4.382;2022-07-05T00:20:35;8.00;;;4.10;;
21337;SDS011;10827;50.878;4.382;2022-07-05T00:23:00;7.00;;;4.00;;
21337;SDS011;10827;50.878;4.382;2022-07-05T00:25:26;6.97;;;3.90;;
21337;SDS011;10827;50.878;4.382;2022-07-05T00:27:52;7.60;;;3.80;;
21337;SDS011;10827;50.878;4.382;2022-07-05T00:30:20;8.43;;;4.93;;
21337;SDS011;10827;50.878;4.382;2022-07-05T00:32:46;11.30;;;4.27;;
21337;SDS011;10827;50.878;4.382;2022-07-05T00:35:12;7.67;;;4.67;;
21337;SDS011;10827;50.878;4.382;2022-07-05T00:37:37;11.20;;;4.20;;
21337;SDS011;10827;50.878;4.382;2022-07-05T00:40:04;9.83;;;4.40;;
21337;SDS011;10827;50.878;4.382;2022-07-05T00:42:32;7.07;;;4.10;;
21337;SDS011;10827;50.878;4.382;2022-07-05T00:44:58;10.63;;;3.87;;
21337;SDS011;10827;50.878;4.382;2022-07-05T00:47:24;11.07;;;4.43;;
21337;SDS011;10827;50.878;4.382;2022-07-05T00:49:50;8.10;;;4.20;;
21337;SDS011;10827;50.878;4.382;2022-07-05T00:52:16;6.27;;;3.63;;
21337;SDS011;10827;50.878;4.382;2022-07-05T00:54:42;7.20;;;3.70;;
21337;SDS011;10827;50.878;4.382;2022-07-05T00:57:08;7.97;;;3.87;;
21337;SDS011;10827;50.878;4.382;2022-07-05T00:59:34;7.90;;;3.70;;
21337;SDS011;10827;50.878;4.382;2022-07-05T01:01:59;6.00;;;3.80;;
21337;SDS011;10827;50.878;4.382;2022-07-05T01:04:26;10.27;;;4.23;;
21337;SDS011;10827;50.878;4.382;2022-07-05T01:06:52;9.87;;;3.80;;
21337;SDS011;10827;50.878;4.382;2022-07-05T01:09:19;13.47;;;4.23;;
21337;SDS011;10827;50.878;4.382;2022-07-05T01:11:47;7.43;;;3.90;;
21337;SDS011;10827;50.878;4.382;2022-07-05T01:14:18;5.30;;;3.63;;
21337;SDS011;10827;50.878;4.382;2022-07-05T01:16:45;10.23;;;3.87;;
21337;SDS011;10827;50.878;4.382;2022-07-05T01:19:11;7.53;;;3.80;;
21337;SDS011;10827;50.878;4.382;2022-07-05T01:21:42;6.33;;;3.83;;
21337;SDS011;10827;50.878;4.382;2022-07-05T01:24:09;6.67;;;3.73;;
21337;SDS011;10827;50.878;4.382;2022-07-05T01:26:38;7.53;;;4.33;;
21337;SDS011;10827;50.878;4.382;2022-07-05T01:29:05;11.87;;;4.13;;
21337;SDS011;10827;50.878;4.382;2022-07-05T01:31:32;5.53;;;3.80;;
21337;SDS011;10827;50.878;4.382;2022-07-05T01:33:58;5.60;;;3.60;;
21337;SDS011;10827;50.878;4.382;2022-07-05T01:36:24;6.80;;;3.80;;
21337;SDS011;10827;50.878;4.382;2022-07-05T01:38:50;5.80;;;4.07;;
21337;SDS011;10827;50.878;4.382;2022-07-05T01:41:15;8.90;;;3.77;;
21337;SDS011;10827;50.878;4.382;2022-07-05T01:43:42;10.20;;;4.07;;
21337;SDS011;10827;50.878;4.382;2022-07-05T01:46:07;8.07;;;3.97;;
21337;SDS011;10827;50.878;4.382;2022-07-05T01:48:35;6.43;;;3.73;;
21337;SDS011;10827;50.878;4.382;2022-07-05T01:51:04;8.17;;;3.83;;
21337;SDS011;10827;50.878;4.382;2022-07-05T01:53:33;6.70;;;4.33;;
21337;SDS011;10827;50.878;4.382;2022-07-05T01:56:02;8.50;;;4.23;;
21337;SDS011;10827;50.878;4.382;2022-07-05T01:58:29;7.27;;;3.90;;
21337;SDS011;10827;50.878;4.382;2022-07-05T02:00:56;9.20;;;3.90;;
21337;SDS011;10827;50.878;4.382;2022-07-05T02:03:22;6.60;;;4.33;;
21337;SDS011;10827;50.878;4.382;2022-07-05T02:05:49;7.00;;;4.07;;
21337;SDS011;10827;50.878;4.382;2022-07-05T02:08:16;6.93;;;3.83;;
21337;SDS011;10827;50.878;4.382;2022-07-05T02:10:43;6.27;;;4.00;;
21337;SDS011;10827;50.878;4.382;2022-07-05T02:13:09;5.20;;;4.23;;
21337;SDS011;10827;50.878;4.382;2022-07-05T02:15:36;7.13;;;4.50;;
21337;SDS011;10827;50.878;4.382;2022-07-05T02:18:03;8.67;;;4.40;;
21337;SDS011;10827;50.878;4.382;2022-07-05T02:20:31;9.47;;;5.23;;
21337;SDS011;10827;50.878;4.382;2022-07-05T02:22:57;8.60;;;4.83;;
21337;SDS011;10827;50.878;4.382;2022-07-05T02:25:23;9.03;;;4.83;;
21337;SDS011;10827;50.878;4.382;2022-07-05T02:27:50;11.27;;;5.23;;
21337;SDS011;10827;50.878;4.382;2022-07-05T02:30:17;9.47;;;4.60;;
21337;SDS011;10827;50.878;4.382;2022-07-05T02:32:43;6.70;;;4.33;;
21337;SDS011;10827;50.878;4.382;2022-07-05T02:35:10;8.90;;;4.10;;
21337;SDS011;10827;50.878;4.382;2022-07-05T02:37:36;6.10;;;4.40;;
21337;SDS011;10827;50.878;4.382;2022-07-05T02:40:04;7.67;;;4.53;;
21337;SDS011;10827;50.878;4.382;2022-07-05T02:42:33;9.00;;;5.20;;
21337;SDS011;10827;50.878;4.382;2022-07-05T02:44:59;8.70;;;5.23;;
21337;SDS011;10827;50.878;4.382;2022-07-05T02:47:24;10.23;;;5.03;;
21337;SDS011;10827;50.878;4.382;2022-07-05T02:49:50;11.77;;;5.43;;
21337;SDS011;10827;50.878;4.382;2022-07-05T02:52:18;11.20;;;4.70;;
21337;SDS011;10827;50.878;4.382;2022-07-05T02:54:44;10.13;;;4.60;;
21337;SDS011;10827;50.878;4.382;2022-07-05T02:57:10;15.23;;;4.63;;
21337;SDS011;10827;50.878;4.382;2022-07-05T02:59:36;6.87;;;4.60;;
21337;SDS011;10827;50.878;4.382;2022-07-05T03:02:01;11.87;;;5.40;;
21337;SDS011;10827;50.878;4.382;2022-07-05T03:04:27;8.33;;;5.07;;
21337;SDS011;10827;50.878;4.382;2022-07-05T03:06:53;10.70;;;5.20;;
21337;SDS011;10827;50.878;4.382;2022-07-05T03:09:19;7.70;;;4.53;;
21337;SDS011;10827;50.878;4.382;2022-07-05T03:11:45;11.83;;;5.00;;
21337;SDS011;10827;50.878;4.382;2022-07-05T03:14:11;17.03;;;5.90;;
21337;SDS011;10827;50.878;4.382;2022-07-05T03:16:36;10.73;;;5.00;;
21337;SDS011;10827;50.878;4.382;2022-07-05T03:19:03;9.27;;;4.80;;
21337;SDS011;10827;50.878;4.382;2022-07-05T03:21:29;8.47;;;4.87;;
21337;SDS011;10827;50.878;4.382;2022-07-05T03:23:56;11.43;;;5.07;;
21337;SDS011;10827;50.878;4.382;2022-07-05T03:26:22;12.57;;;5.33;;
21337;SDS011;10827;50.878;4.382;2022-07-05T03:28:48;9.93;;;5.43;;
21337;SDS011;10827;50.878;4.382;2022-07-05T03:31:13;13.13;;;5.67;;
21337;SDS011;10827;50.878;4.382;2022-07-05T03:33:39;10.87;;;6.00;;
21337;SDS011;10827;50.878;4.382;2022-07-05T03:36:05;12.27;;;5.63;;
21337;SDS011;10827;50.878;4.382;2022-07-05T03:38:31;9.10;;;6.10;;
21337;SDS011;10827;50.878;4.382;2022-07-05T03:40:58;12.77;;;6.03;;
21337;SDS011;10827;50.878;4.382;2022-07-05T03:43:24;12.87;;;5.33;;
21337;SDS011;10827;50.878;4.382;2022-07-05T03:45:50;12.93;;;6.30;;
21337;SDS011;10827;50.878;4.382;2022-07-05T03:48:16;13.90;;;6.20;;
21337;SDS011;10827;50.878;4.382;2022-07-05T03:50:41;18.57;;;6.23;;
21337;SDS011;10827;50.878;4.382;2022-07-05T03:53:07;10.33;;;6.20;;
21337;SDS011;10827;50.878;4.382;2022-07-05T03:55:33;9.87;;;6.07;;
21337;SDS011;10827;50.878;4.382;2022-07-05T03:57:58;13.20;;;6.47;;
21337;SDS011;10827;50.878;4.382;2022-07-05T04:00:24;12.87;;;7.20;;
21337;SDS011;10827;50.878;4.382;2022-07-05T04:02:50;14.10;;;7.00;;
21337;SDS011;10827;50.878;4.382;2022-07-05T04:05:15;14.83;;;6.93;;
21337;SDS011;10827;50.878;4.382;2022-07-05T04:07:48;16.90;;;6.90;;
21337;SDS011;10827;50.878;4.382;2022-07-05T04:10:15;12.20;;;7.13;;
21337;SDS011;10827;50.878;4.382;2022-07-05T04:12:41;11.67;;;6.90;;
21337;SDS011;10827;50.878;4.382;2022-07-05T04:15:07;18.00;;;7.77;;
21337;SDS011;10827;50.878;4.382;2022-07-05T04:17:33;15.20;;;6.70;;
21337;SDS011;10827;50.878;4.382;2022-07-05T04:19:59;13.60;;;6.60;;
21337;SDS011;10827;50.878;4.382;2022-07-05T04:22:25;12.20;;;6.63;;
21337;SDS011;10827;50.878;4.382;2022-07-05T04:24:51;18.33;;;6.50;;
21337;SDS011;10827;50.878;4.382;2022-07-05T04:27:35;11.53;;;6.37;;
21337;SDS011;10827;50.878;4.382;2022-07-05T04:30:01;12.10;;;6.17;;
21337;SDS011;10827;50.878;4.382;2022-07-05T04:32:27;15.97;;;6.53;;
21337;SDS011;10827;50.878;4.382;2022-07-05T04:34:53;14.50;;;6.47;;
21337;SDS011;10827;50.878;4.382;2022-07-05T04:37:19;10.57;;;6.03;;
21337;SDS011;10827;50.878;4.382;2022-07-05T04:39:44;10.90;;;5.90;;
21337;SDS011;10827;50.878;4.382;2022-07-05T04:42:10;10.57;;;6.23;;
21337;SDS011;10827;50.878;4.382;2022-07-05T04:44:36;12.73;;;6.30;;
21337;SDS011;10827;50.878;4.382;2022-07-05T04:47:01;9.60;;;5.70;;
21337;SDS011;10827;50.878;4.382;2022-07-05T04:49:28;10.07;;;5.57;;
21337;SDS011;10827;50.878;4.382;2022-07-05T04:51:53;8.53;;;5.80;;
21337;SDS011;10827;50.878;4.382;2022-07-05T04:54:19;10.67;;;7.40;;
21337;SDS011;10827;50.878;4.382;2022-07-05T04:56:45;13.63;;;5.63;;
21337;SDS011;10827;50.878;4.382;2022-07-05T04:59:11;10.20;;;6.03;;
21337;SDS011;10827;50.878;4.382;2022-07-05T05:01:36;13.60;;;5.30;;
21337;SDS011;10827;50.878;4.382;2022-07-05T05:04:02;10.57;;;5.60;;
21337;SDS011;10827;50.878;4.382;2022-07-05T05:06:28;14.60;;;5.97;;
21337;SDS011;10827;50.878;4.382;2022-07-05T05:08:53;12.10;;;5.23;;
21337;SDS011;10827;50.878;4.382;2022-07-05T05:11:19;10.90;;;5.37;;
21337;SDS011;10827;50.878;4.382;2022-07-05T05:13:45;10.10;;;5.40;;
21337;SDS011;10827;50.878;4.382;2022-07-05T05:16:12;9.63;;;5.70;;
21337;SDS011;10827;50.878;4.382;2022-07-05T05:18:37;13.53;;;5.63;;
21337;SDS011;10827;50.878;4.382;2022-07-05T05:21:03;15.40;;;5.57;;
21337;SDS011;10827;50.878;4.382;2022-07-05T05:23:29;11.13;;;5.63;;
21337;SDS011;10827;50.878;4.382;2022-07-05T05:25:55;16.33;;;5.73;;
21337;SDS011;10827;50.878;4.382;2022-07-05T05:28:21;12.27;;;5.13;;
21337;SDS011;10827;50.878;4.382;2022-07-05T05:30:47;16.83;;;5.30;;
21337;SDS011;10827;50.878;4.382;2022-07-05T05:33:13;13.83;;;5.37;;
21337;SDS011;10827;50.878;4.382;2022-07-05T05:35:39;12.63;;;4.97;;
21337;SDS011;10827;50.878;4.382;2022-07-05T05:38:05;11.00;;;4.63;;
21337;SDS011;10827;50.878;4.382;2022-07-05T05:40:31;8.83;;;5.10;;
21337;SDS011;10827;50.878;4.382;2022-07-05T05:42:58;13.20;;;5.80;;
21337;SDS011;10827;50.878;4.382;2022-07-05T05:45:24;18.13;;;5.77;;
21337;SDS011;10827;50.878;4.382;2022-07-05T05:47:51;17.67;;;5.70;;
21337;SDS011;10827;50.878;4.382;2022-07-05T05:50:18;11.53;;;5.40;;
21337;SDS011;10827;50.878;4.382;2022-07-05T05:52:50;12.40;;;5.50;;
21337;SDS011;10827;50.878;4.382;2022-07-05T05:55:16;9.40;;;4.77;;
21337;SDS011;10827;50.878;4.382;2022-07-05T05:57:43;16.87;;;5.50;;
21337;SDS011;10827;50.878;4.382;2022-07-05T06:00:09;14.43;;;5.00;;
21337;SDS011;10827;50.878;4.382;2022-07-05T06:02:35;13.70;;;4.53;;
21337;SDS011;10827;50.878;4.382;2022-07-05T06:05:01;13.50;;;4.83;;
21337;SDS011;10827;50.878;4.382;2022-07-05T06:07:27;17.47;;;5.73;;
21337;SDS011;10827;50.878;4.382;2022-07-05T06:09:53;15.20;;;5.37;;
21337;SDS011;10827;50.878;4.382;2022-07-05T06:12:19;18.67;;;6.20;;
21337;SDS011;10827;50.878;4.382;2022-07-05T06:14:44;14.00;;;4.70;;
21337;SDS011;10827;50.878;4.382;2022-07-05T06:17:10;13.17;;;5.00;;
21337;SDS011;10827;50.878;4.382;2022-07-05T06:19:36;9.33;;;4.60;;
21337;SDS011;10827;50.878;4.382;2022-07-05T06:22:02;9.50;;;4.70;;
21337;SDS011;10827;50.878;4.382;2022-07-05T06:24:27;15.47;;;4.37;;
21337;SDS011;10827;50.878;4.382;2022-07-05T06:26:55;12.57;;;4.70;;
21337;SDS011;10827;50.878;4.382;2022-07-05T06:29:20;15.20;;;4.50;;
21337;SDS011;10827;50.878;4.382;2022-07-05T06:31:46;14.43;;;5.23;;
21337;SDS011;10827;50.878;4.382;2022-07-05T06:34:12;15.80;;;5.07;;
21337;SDS011;10827;50.878;4.382;2022-07-05T06:36:38;12.67;;;4.43;;
21337;SDS011;10827;50.878;4.382;2022-07-05T06:39:04;14.83;;;3.80;;
21337;SDS011;10827;50.878;4.382;2022-07-05T06:41:29;14.90;;;4.60;;
21337;SDS011;10827;50.878;4.382;2022-07-05T06:43:55;14.67;;;4.20;;
21337;SDS011;10827;50.878;4.382;2022-07-05T06:46:21;7.00;;;4.03;;
21337;SDS011;10827;50.878;4.382;2022-07-05T06:48:46;10.53;;;3.57;;
21337;SDS011;10827;50.878;4.382;2022-07-05T06:51:12;9.57;;;4.03;;
21337;SDS011;10827;50.878;4.382;2022-07-05T06:53:38;6.63;;;3.93;;
21337;SDS011;10827;50.878;4.382;2022-07-05T06:56:04;11.80;;;4.23;;
21337;SDS011;10827;50.878;4.382;2022-07-05T06:58:30;11.17;;;4.40;;
21337;SDS011;10827;50.878;4.382;2022-07-05T07:00:55;13.10;;;4.30;;
21337;SDS011;10827;50.878;4.382;2022-07-05T07:03:21;9.03;;;4.00;;
21337;SDS011;10827;50.878;4.382;2022-07-05T07:05:47;14.80;;;4.50;;
21337;SDS011;10827;50.878;4.382;2022-07-05T07:08:12;9.67;;;4.20;;
21337;SDS011;10827;50.878;4.382;2022-07-05T07:10:56;13.40;;;4.43;;
21337;SDS011;10827;50.878;4.382;2022-07-05T07:13:22;11.07;;;4.43;;
21337;SDS011;10827;50.878;4.382;2022-07-05T07:15:48;13.57;;;4.27;;
21337;SDS011;10827;50.878;4.382;2022-07-05T07:18:14;14.87;;;4.93;;
21337;SDS011;10827;50.878;4.382;2022-07-05T07:20:40;10.43;;;4.17;;
21337;SDS011;10827;50.878;4.382;2022-07-05T07:23:06;12.57;;;4.53;;
21337;SDS011;10827;50.878;4.382;2022-07-05T07:25:32;14.40;;;4.23;;
21337;SDS011;10827;50.878;4.382;2022-07-05T07:27:58;12.67;;;4.27;;
21337;SDS011;10827;50.878;4.382;2022-07-05T07:30:25;13.43;;;5.13;;
21337;SDS011;10827;50.878;4.382;2022-07-05T07:32:52;15.00;;;4.23;;
21337;SDS011;10827;50.878;4.382;2022-07-05T07:35:18;19.00;;;5.00;;
21337;SDS011;10827;50.878;4.382;2022-07-05T07:37:44;14.80;;;4.83;;
21337;SDS011;10827;50.878;4.382;2022-07-05T07:40:10;13.47;;;4.87;;
21337;SDS011;10827;50.878;4.382;2022-07-05T07:42:36;14.13;;;5.03;;
21337;SDS011;10827;50.878;4.382;2022-07-05T07:45:03;10.80;;;4.67;;
21337;SDS011;10827;50.878;4.382;2022-07-05T07:47:32;11.83;;;5.13;;
21337;SDS011;10827;50.878;4.382;2022-07-05T07:49:59;17.43;;;5.87;;
21337;SDS011;10827;50.878;4.382;2022-07-05T07:52:25;19.10;;;4.97;;
21337;SDS011;10827;50.878;4.382;2022-07-05T07:54:51;10.10;;;5.17;;
21337;SDS011;10827;50.878;4.382;2022-07-05T07:57:17;15.53;;;5.47;;
21337;SDS011;10827;50.878;4.382;2022-07-05T07:59:43;15.30;;;5.53;;
21337;SDS011;10827;50.878;4.382;2022-07-05T08:02:10;18.47;;;5.73;;
21337;SDS011;10827;50.878;4.382;2022-07-05T08:04:36;12.67;;;5.47;;
21337;SDS011;10827;50.878;4.382;2022-07-05T08:07:01;10.00;;;4.97;;
21337;SDS011;10827;50.878;4.382;2022-07-05T08:09:29;13.00;;;4.97;;
21337;SDS011;10827;50.878;4.382;2022-07-05T08:11:55;17.10;;;5.60;;
21337;SDS011;10827;50.878;4.382;2022-07-05T08:14:21;12.00;;;5.20;;
21337;SDS011;10827;50.878;4.382;2022-07-05T08:16:47;15.87;;;5.33;;
21337;SDS011;10827;50.878;4.382;2022-07-05T08:19:14;14.10;;;5.00;;
21337;SDS011;10827;50.878;4.382;2022-07-05T08:21:59;17.13;;;5.70;;
21337;SDS011;10827;50.878;4.382;2022-07-05T08:24:26;16.60;;;5.30;;
21337;SDS011;10827;50.878;4.382;2022-07-05T08:26:52;14.73;;;5.40;;
21337;SDS011;10827;50.878;4.382;2022-07-05T08:29:18;9.30;;;5.30;;
21337;SDS011;10827;50.878;4.382;2022-07-05T08:31:48;11.60;;;5.20;;
21337;SDS011;10827;50.878;4.382;2022-07-05T08:34:15;10.20;;;4.50;;
21337;SDS011;10827;50.878;4.382;2022-07-05T08:36:44;10.68;;;5.18;;
21337;SDS011;10827;50.878;4.382;2022-07-05T08:39:12;13.20;;;5.25;;
21337;SDS011;10827;50.878;4.382;2022-07-05T08:41:40;15.60;;;5.43;;
21337;SDS011;10827;50.878;4.382;2022-07-05T08:44:06;19.37;;;6.43;;
21337;SDS011;10827;50.878;4.382;2022-07-05T08:46:33;14.77;;;5.47;;
21337;SDS011;10827;50.878;4.382;2022-07-05T08:49:02;16.80;;;7.07;;
21337;SDS011;10827;50.878;4.382;2022-07-05T08:51:33;25.47;;;8.47;;
21337;SDS011;10827;50.878;4.382;2022-07-05T08:54:02;20.08;;;7.70;;
21337;SDS011;10827;50.878;4.382;2022-07-05T08:56:28;23.27;;;9.67;;
21337;SDS011;10827;50.878;4.382;2022-07-05T08:58:55;33.13;;;14.73;;
21337;SDS011;10827;50.878;4.382;2022-07-05T09:01:21;18.20;;;7.60;;
21337;SDS011;10827;50.878;4.382;2022-07-05T09:03:48;17.70;;;6.40;;
21337;SDS011;10827;50.878;4.382;2022-07-05T09:06:22;11.23;;;5.33;;
21337;SDS011;10827;50.878;4.382;2022-07-05T09:08:51;13.70;;;5.93;;
21337;SDS011;10827;50.878;4.382;2022-07-05T09:11:30;12.23;;;5.40;;
21337;SDS011;10827;50.878;4.382;2022-07-05T09:14:04;14.57;;;5.07;;
21337;SDS011;10827;50.878;4.382;2022-07-05T09:16:31;14.82;;;5.22;;
21337;SDS011;10827;50.878;4.382;2022-07-05T09:19:04;10.38;;;5.15;;
21337;SDS011;10827;50.878;4.382;2022-07-05T09:21:31;14.30;;;5.03;;
21337;SDS011;10827;50.878;4.382;2022-07-05T09:23:58;11.88;;;4.35;;
21337;SDS011;10827;50.878;4.382;2022-07-05T09:29:06;14.43;;;4.90;;
21337;SDS011;10827;50.878;4.382;2022-07-05T09:31:35;13.10;;;5.32;;
21337;SDS011;10827;50.878;4.382;2022-07-05T09:34:09;13.43;;;5.32;;
21337;SDS011;10827;50.878;4.382;2022-07-05T09:42:09;14.65;;;4.72;;
21337;SDS011;10827;50.878;4.382;2022-07-05T09:44:39;11.25;;;4.32;;
21337;SDS011;10827;50.878;4.382;2022-07-05T09:47:09;14.10;;;5.25;;
21337;SDS011;10827;50.878;4.382;2022-07-05T09:49:37;17.70;;;5.15;;
21337;SDS011;10827;50.878;4.382;2022-07-05T09:52:07;8.73;;;4.32;;
21337;SDS011;10827;50.878;4.382;2022-07-05T09:54:33;9.95;;;4.10;;
21337;SDS011;10827;50.878;4.382;2022-07-05T09:56:59;13.35;;;4.45;;
21337;SDS011;10827;50.878;4.382;2022-07-05T09:59:25;11.90;;;4.45;;
21337;SDS011;10827;50.878;4.382;2022-07-05T10:01:50;12.93;;;4.72;;
21337;SDS011;10827;50.878;4.382;2022-07-05T10:04:17;12.07;;;4.70;;
21337;SDS011;10827;50.878;4.382;2022-07-05T10:06:43;9.70;;;4.25;;
21337;SDS011;10827;50.878;4.382;2022-07-05T10:09:09;11.65;;;4.22;;
21337;SDS011;10827;50.878;4.382;2022-07-05T10:11:40;8.30;;;3.42;;
21337;SDS011;10827;50.878;4.382;2022-07-05T10:14:10;8.00;;;3.30;;
21337;SDS011;10827;50.878;4.382;2022-07-05T10:16:39;7.18;;;2.70;;
21337;SDS011;10827;50.878;4.382;2022-07-05T10:19:06;9.45;;;3.20;;
21337;SDS011;10827;50.878;4.382;2022-07-05T10:21:37;8.32;;;3.72;;
21337;SDS011;10827;50.878;4.382;2022-07-05T10:24:05;6.80;;;3.65;;
21337;SDS011;10827;50.878;4.382;2022-07-05T10:26:31;8.32;;;3.30;;
21337;SDS011;10827;50.878;4.382;2022-07-05T10:28:58;6.93;;;3.20;;
21337;SDS011;10827;50.878;4.382;2022-07-05T10:31:27;7.78;;;3.40;;
21337;SDS011;10827;50.878;4.382;2022-07-05T10:33:53;7.95;;;3.30;;
21337;SDS011;10827;50.878;4.382;2022-07-05T10:36:25;9.63;;;3.20;;
21337;SDS011;10827;50.878;4.382;2022-07-05T10:38:51;9.00;;;3.20;;
21337;SDS011;10827;50.878;4.382;2022-07-05T10:41:18;8.32;;;3.20;;
21337;SDS011;10827;50.878;4.382;2022-07-05T10:43:54;6.75;;;2.95;;
21337;SDS011;10827;50.878;4.382;2022-07-05T10:46:36;9.68;;;2.95;;
21337;SDS011;10827;50.878;4.382;2022-07-05T10:49:11;3.72;;;2.78;;
21337;SDS011;10827;50.878;4.382;2022-07-05T10:51:42;8.85;;;2.78;;
21337;SDS011;10827;50.878;4.382;2022-07-05T10:54:09;6.32;;;2.55;;
21337;SDS011;10827;50.878;4.382;2022-07-05T10:56:34;7.63;;;2.67;;
21337;SDS011;10827;50.878;4.382;2022-07-05T10:59:05;3.50;;;2.35;;
21337;SDS011;10827;50.878;4.382;2022-07-05T11:01:35;17.30;;;6.75;;
21337;SDS011;10827;50.878;4.382;2022-07-05T11:06:41;3.72;;;2.60;;
21337;SDS011;10827;50.878;4.382;2022-07-05T11:16:45;2.58;;;2.00;;
21337;SDS011;10827;50.878;4.382;2022-07-05T11:19:12;8.45;;;2.70;;
21337;SDS011;10827;50.878;4.382;2022-07-05T11:24:28;5.65;;;2.17;;
21337;SDS011;10827;50.878;4.382;2022-07-05T11:26:57;5.25;;;2.80;;
21337;SDS011;10827;50.878;4.382;2022-07-05T11:29:43;4.40;;;2.30;;
21337;SDS011;10827;50.878;4.382;2022-07-05T11:34:43;9.40;;;2.75;;
21337;SDS011;10827;50.878;4.382;2022-07-05T11:39:39;4.88;;;2.13;;
21337;SDS011;10827;50.878;4.382;2022-07-05T11:42:08;6.88;;;2.25;;
21337;SDS011;10827;50.878;4.382;2022-07-05T11:44:35;6.47;;;2.65;;
21337;SDS011;10827;50.878;4.382;2022-07-05T11:47:02;5.15;;;2.72;;
21337;SDS011;10827;50.878;4.382;2022-07-05T11:49:28;6.90;;;2.53;;
21337;SDS011;10827;50.878;4.382;2022-07-05T11:51:56;7.45;;;2.80;;
21337;SDS011;10827;50.878;4.382;2022-07-05T11:54:23;9.85;;;2.70;;
21337;SDS011;10827;50.878;4.382;2022-07-05T11:56:50;8.70;;;2.40;;
21337;SDS011;10827;50.878;4.382;2022-07-05T11:59:25;10.57;;;3.17;;
21337;SDS011;10827;50.878;4.382;2022-07-05T12:01:52;8.60;;;3.00;;
21337;SDS011;10827;50.878;4.382;2022-07-05T12:04:25;6.60;;;2.60;;
21337;SDS011;10827;50.878;4.382;2022-07-05T12:06:52;6.47;;;3.17;;
21337;SDS011;10827;50.878;4.382;2022-07-05T12:09:23;8.93;;;2.95;;
21337;SDS011;10827;50.878;4.382;2022-07-05T12:12:17;6.53;;;2.88;;
21337;SDS011;10827;50.878;4.382;2022-07-05T12:15:02;4.75;;;3.05;;
21337;SDS011;10827;50.878;4.382;2022-07-05T12:17:28;10.00;;;3.00;;
21337;SDS011;10827;50.878;4.382;2022-07-05T12:19:54;7.38;;;3.10;;
21337;SDS011;10827;50.878;4.382;2022-07-05T12:24:56;6.38;;;3.35;;
21337;SDS011;10827;50.878;4.382;2022-07-05T12:27:24;5.07;;;3.58;;
21337;SDS011;10827;50.878;4.382;2022-07-05T12:29:53;5.43;;;3.55;;
21337;SDS011;10827;50.878;4.382;2022-07-05T12:32:19;7.50;;;3.15;;
21337;SDS011;10827;50.878;4.382;2022-07-05T12:34:45;10.38;;;3.78;;
21337;SDS011;10827;50.878;4.382;2022-07-05T12:37:19;8.02;;;3.25;;
21337;SDS011;10827;50.878;4.382;2022-07-05T12:39:48;4.80;;;2.63;;
21337;SDS011;10827;50.878;4.382;2022-07-05T12:42:31;9.27;;;3.45;;
21337;SDS011;10827;50.878;4.382;2022-07-05T12:45:14;6.35;;;3.00;;
21337;SDS011;10827;50.878;4.382;2022-07-05T12:47:47;4.22;;;3.10;;
21337;SDS011;10827;50.878;4.382;2022-07-05T12:50:14;5.60;;;2.60;;
21337;SDS011;10827;50.878;4.382;2022-07-05T12:55:47;8.55;;;3.42;;
21337;SDS011;10827;50.878;4.382;2022-07-05T12:58:45;7.50;;;3.22;;
21337;SDS011;10827;50.878;4.382;2022-07-05T13:01:22;8.40;;;3.05;;
21337;SDS011;10827;50.878;4.382;2022-07-05T13:03:58;9.68;;;3.13;;
21337;SDS011;10827;50.878;4.382;2022-07-05T13:09:12;7.20;;;2.88;;
21337;SDS011;10827;50.878;4.382;2022-07-05T13:11:39;4.35;;;2.92;;
21337;SDS011;10827;50.878;4.382;2022-07-05T13:14:05;3.35;;;2.60;;
21337;SDS011;10827;50.878;4.382;2022-07-05T13:16:31;4.65;;;3.00;;
21337;SDS011;10827;50.878;4.382;2022-07-05T13:19:10;6.97;;;2.60;;
21337;SDS011;10827;50.878;4.382;2022-07-05T13:21:37;10.60;;;3.58;;
21337;SDS011;10827;50.878;4.382;2022-07-05T13:24:03;8.30;;;3.15;;
21337;SDS011;10827;50.878;4.382;2022-07-05T13:26:29;4.22;;;2.17;;
21337;SDS011;10827;50.878;4.382;2022-07-05T13:28:55;11.30;;;2.55;;
21337;SDS011;10827;50.878;4.382;2022-07-05T13:31:21;4.25;;;1.98;;
21337;SDS011;10827;50.878;4.382;2022-07-05T13:33:47;5.47;;;2.15;;
21337;SDS011;10827;50.878;4.382;2022-07-05T13:36:12;5.13;;;1.70;;
21337;SDS011;10827;50.878;4.382;2022-07-05T13:38:38;5.47;;;1.98;;
21337;SDS011;10827;50.878;4.382;2022-07-05T13:41:04;6.85;;;1.80;;
21337;SDS011;10827;50.878;4.382;2022-07-05T13:43:29;8.85;;;1.88;;
21337;SDS011;10827;50.878;4.382;2022-07-05T13:45:55;5.75;;;1.95;;
21337;SDS011;10827;50.878;4.382;2022-07-05T13:48:21;5.90;;;2.25;;
21337;SDS011;10827;50.878;4.382;2022-07-05T13:50:47;5.03;;;2.10;;
21337;SDS011;10827;50.878;4.382;2022-07-05T13:53:13;3.33;;;2.20;;
21337;SDS011;10827;50.878;4.382;2022-07-05T13:55:39;10.90;;;2.05;;
21337;SDS011;10827;50.878;4.382;2022-07-05T13:58:05;2.40;;;1.85;;
21337;SDS011;10827;50.878;4.382;2022-07-05T14:00:30;4.55;;;2.00;;
21337;SDS011;10827;50.878;4.382;2022-07-05T14:02:56;4.72;;;1.77;;
21337;SDS011;10827;50.878;4.382;2022-07-05T14:05:22;7.93;;;2.17;;
21337;SDS011;10827;50.878;4.382;2022-07-05T14:07:47;6.40;;;2.28;;
21337;SDS011;10827;50.878;4.382;2022-07-05T14:10:13;3.53;;;2.00;;
21337;SDS011;10827;50.878;4.382;2022-07-05T14:12:40;6.35;;;1.90;;
21337;SDS011;10827;50.878;4.382;2022-07-05T14:15:06;4.50;;;2.00;;
21337;SDS011;10827;50.878;4.382;2022-07-05T14:17:32;8.38;;;1.98;;
21337;SDS011;10827;50.878;4.382;2022-07-05T14:19:58;5.70;;;2.17;;
21337;SDS011;10827;50.878;4.382;2022-07-05T14:22:24;5.25;;;1.80;;
21337;SDS011;10827;50.878;4.382;2022-07-05T14:24:49;3.85;;;1.90;;
21337;SDS011;10827;50.878;4.382;2022-07-05T14:27:17;4.18;;;1.60;;
21337;SDS011;10827;50.878;4.382;2022-07-05T14:29:43;4.72;;;1.80;;
21337;SDS011;10827;50.878;4.382;2022-07-05T14:32:09;2.60;;;1.42;;
21337;SDS011;10827;50.878;4.382;2022-07-05T14:34:34;3.00;;;1.70;;
21337;SDS011;10827;50.878;4.382;2022-07-05T14:37:00;4.13;;;1.77;;
21337;SDS011;10827;50.878;4.382;2022-07-05T14:39:26;5.80;;;2.10;;
21337;SDS011;10827;50.878;4.382;2022-07-05T14:41:52;8.32;;;2.05;;
21337;SDS011;10827;50.878;4.382;2022-07-05T14:44:17;4.95;;;1.95;;
21337;SDS011;10827;50.878;4.382;2022-07-05T14:46:43;4.32;;;2.00;;
21337;SDS011;10827;50.878;4.382;2022-07-05T14:49:09;2.65;;;1.80;;
21337;SDS011;10827;50.878;4.382;2022-07-05T14:51:35;4.57;;;1.58;;
21337;SDS011;10827;50.878;4.382;2022-07-05T14:54:01;3.53;;;2.10;;
21337;SDS011;10827;50.878;4.382;2022-07-05T14:56:26;4.88;;;1.95;;
21337;SDS011;10827;50.878;4.382;2022-07-05T14:58:52;4.85;;;1.95;;
21337;SDS011;10827;50.878;4.382;2022-07-05T15:01:18;7.43;;;2.05;;
21337;SDS011;10827;50.878;4.382;2022-07-05T15:03:44;6.30;;;1.98;;
21337;SDS011;10827;50.878;4.382;2022-07-05T15:06:10;7.38;;;2.10;;
21337;SDS011;10827;50.878;4.382;2022-07-05T15:08:36;6.53;;;3.17;;
21337;SDS011;10827;50.878;4.382;2022-07-05T15:11:02;5.20;;;2.47;;
21337;SDS011;10827;50.878;4.382;2022-07-05T15:13:32;1.67;;;1.50;;
21337;SDS011;10827;50.878;4.382;2022-07-05T15:15:59;5.43;;;1.80;;